sensor_id;sensor_type;location;lat;lon;timestamp;temperature;humidity
2190;DHT22;1101;51.056;7.262;2022-09-14T00:01:21;18.70;92.80
2190;DHT22;1101;51.056;7.262;2022-09-14T00:03:55;18.60;92.70
2190;DHT22;1101;51.056;7.262;2022-09-14T00:06:23;18.60;92.70
2190;DHT22;1101;51.056;7.262;2022-09-14T00:08:52;18.60;92.80
2190;DHT22;1101;51.056;7.262;2022-09-14T00:11:22;18.70;92.80
2190;DHT22;1101;51.056;7.262;2022-09-14T00:13:50;18.60;92.80
2190;DHT22;1101;51.056;7.262;2022-09-14T00:16:19;18.60;92.80
2190;DHT22;1101;51.056;7.262;2022-09-14T00:18:49;18.60;92.80
2190;DHT22;1101;51.056;7.262;2022-09-14T00:21:19;18.60;92.90
2190;DHT22;1101;51.056;7.262;2022-09-14T00:23:47;18.60;92.90
2190;DHT22;1101;51.056;7.262;2022-09-14T00:26:18;18.60;92.90
2190;DHT22;1101;51.056;7.262;2022-09-14T00:28:48;18.60;92.90
2190;DHT22;1101;51.056;7.262;2022-09-14T00:31:16;18.60;93.00
2190;DHT22;1101;51.056;7.262;2022-09-14T00:33:46;18.60;93.00
2190;DHT22;1101;51.056;7.262;2022-09-14T00:36:16;18.60;93.00
2190;DHT22;1101;51.056;7.262;2022-09-14T00:38:46;18.60;93.00
2190;DHT22;1101;51.056;7.262;2022-09-14T00:41:17;18.60;93.10
2190;DHT22;1101;51.056;7.262;2022-09-14T00:43:54;18.60;93.10
2190;DHT22;1101;51.056;7.262;2022-09-14T00:46:22;18.60;93.10
2190;DHT22;1101;51.056;7.262;2022-09-14T00:48:51;18.60;93.40
2190;DHT22;1101;51.056;7.262;2022-09-14T00:51:20;18.60;93.10
2190;DHT22;1101;51.056;7.262;2022-09-14T00:53:50;18.50;93.10
2190;DHT22;1101;51.056;7.262;2022-09-14T00:56:18;18.50;93.10
2190;DHT22;1101;51.056;7.262;2022-09-14T00:58:48;18.50;93.10
2190;DHT22;1101;51.056;7.262;2022-09-14T01:01:17;18.50;93.20
2190;DHT22;1101;51.056;7.262;2022-09-14T01:03:45;18.50;93.20
2190;DHT22;1101;51.056;7.262;2022-09-14T01:06:17;18.50;93.20
2190;DHT22;1101;51.056;7.262;2022-09-14T01:09:04;18.50;93.30
2190;DHT22;1101;51.056;7.262;2022-09-14T01:11:49;18.50;93.30
2190;DHT22;1101;51.056;7.262;2022-09-14T01:14:26;18.50;93.30
2190;DHT22;1101;51.056;7.262;2022-09-14T01:17:01;18.50;93.40
2190;DHT22;1101;51.056;7.262;2022-09-14T01:19:38;18.50;93.40
2190;DHT22;1101;51.056;7.262;2022-09-14T01:22:13;18.40;93.40
2190;DHT22;1101;51.056;7.262;2022-09-14T01:24:49;18.40;93.40
2190;DHT22;1101;51.056;7.262;2022-09-14T01:27:27;18.40;93.40
2190;DHT22;1101;51.056;7.262;2022-09-14T01:30:04;18.40;93.50
2190;DHT22;1101;51.056;7.262;2022-09-14T01:32:38;18.40;93.50
2190;DHT22;1101;51.056;7.262;2022-09-14T01:35:10;18.40;93.50
2190;DHT22;1101;51.056;7.262;2022-09-14T01:37:44;18.40;93.50
2190;DHT22;1101;51.056;7.262;2022-09-14T01:40:16;18.30;93.50
2190;DHT22;1101;51.056;7.262;2022-09-14T01:42:49;18.30;93.50
2190;DHT22;1101;51.056;7.262;2022-09-14T01:45:19;18.30;93.50
2190;DHT22;1101;51.056;7.262;2022-09-14T01:47:52;18.30;93.50
2190;DHT22;1101;51.056;7.262;2022-09-14T01:50:25;18.30;93.50
2190;DHT22;1101;51.056;7.262;2022-09-14T01:52:58;18.20;93.40
2190;DHT22;1101;51.056;7.262;2022-09-14T01:55:29;18.10;93.40
2190;DHT22;1101;51.056;7.262;2022-09-14T01:58:04;18.10;93.50
2190;DHT22;1101;51.056;7.262;2022-09-14T02:00:35;18.10;93.50
2190;DHT22;1101;51.056;7.262;2022-09-14T02:03:10;18.10;93.60
2190;DHT22;1101;51.056;7.262;2022-09-14T02:05:44;18.00;93.60
2190;DHT22;1101;51.056;7.262;2022-09-14T02:08:14;18.00;93.60
2190;DHT22;1101;51.056;7.262;2022-09-14T02:10:42;18.00;93.60
2190;DHT22;1101;51.056;7.262;2022-09-14T02:13:12;18.00;93.70
2190;DHT22;1101;51.056;7.262;2022-09-14T02:15:39;18.00;93.70
2190;DHT22;1101;51.056;7.262;2022-09-14T02:18:07;18.10;93.80
2190;DHT22;1101;51.056;7.262;2022-09-14T02:20:38;18.10;93.80
2190;DHT22;1101;51.056;7.262;2022-09-14T02:23:07;18.10;93.80
2190;DHT22;1101;51.056;7.262;2022-09-14T02:25:36;18.10;93.80
2190;DHT22;1101;51.056;7.262;2022-09-14T02:28:06;18.10;93.80
2190;DHT22;1101;51.056;7.262;2022-09-14T02:30:44;18.10;93.80
2190;DHT22;1101;51.056;7.262;2022-09-14T02:33:17;18.10;93.80
2190;DHT22;1101;51.056;7.262;2022-09-14T02:35:50;18.10;93.80
2190;DHT22;1101;51.056;7.262;2022-09-14T02:38:24;18.10;93.80
2190;DHT22;1101;51.056;7.262;2022-09-14T02:40:59;18.20;93.90
2190;DHT22;1101;51.056;7.262;2022-09-14T02:43:32;18.20;93.90
2190;DHT22;1101;51.056;7.262;2022-09-14T02:46:09;18.10;93.90
2190;DHT22;1101;51.056;7.262;2022-09-14T02:48:53;18.20;93.90
2190;DHT22;1101;51.056;7.262;2022-09-14T02:51:26;18.10;93.90
2190;DHT22;1101;51.056;7.262;2022-09-14T02:53:58;18.10;93.90
2190;DHT22;1101;51.056;7.262;2022-09-14T02:56:27;18.10;94.00
2190;DHT22;1101;51.056;7.262;2022-09-14T02:58:56;18.10;94.00
2190;DHT22;1101;51.056;7.262;2022-09-14T03:01:25;18.10;94.00
2190;DHT22;1101;51.056;7.262;2022-09-14T03:03:53;18.10;94.00
2190;DHT22;1101;51.056;7.262;2022-09-14T03:06:21;18.10;94.00
2190;DHT22;1101;51.056;7.262;2022-09-14T03:08:49;18.10;94.00
2190;DHT22;1101;51.056;7.262;2022-09-14T03:11:17;18.10;94.10
2190;DHT22;1101;51.056;7.262;2022-09-14T03:13:48;18.10;94.10
2190;DHT22;1101;51.056;7.262;2022-09-14T03:16:17;18.10;94.10
2190;DHT22;1101;51.056;7.262;2022-09-14T03:18:46;18.10;94.10
2190;DHT22;1101;51.056;7.262;2022-09-14T03:21:15;18.10;94.10
2190;DHT22;1101;51.056;7.262;2022-09-14T03:23:45;18.10;94.10
2190;DHT22;1101;51.056;7.262;2022-09-14T03:26:14;18.10;94.10
2190;DHT22;1101;51.056;7.262;2022-09-14T03:28:43;18.10;94.20
2190;DHT22;1101;51.056;7.262;2022-09-14T03:31:11;18.10;94.20
2190;DHT22;1101;51.056;7.262;2022-09-14T03:33:39;18.10;94.20
2190;DHT22;1101;51.056;7.262;2022-09-14T03:36:13;18.10;94.20
2190;DHT22;1101;51.056;7.262;2022-09-14T03:38:42;18.10;94.20
2190;DHT22;1101;51.056;7.262;2022-09-14T03:41:10;18.10;94.20
2190;DHT22;1101;51.056;7.262;2022-09-14T03:43:38;18.10;94.30
2190;DHT22;1101;51.056;7.262;2022-09-14T03:46:07;18.10;94.30
2190;DHT22;1101;51.056;7.262;2022-09-14T03:48:35;18.00;94.20
2190;DHT22;1101;51.056;7.262;2022-09-14T03:51:07;18.00;94.30
2190;DHT22;1101;51.056;7.262;2022-09-14T03:53:37;18.00;94.30
2190;DHT22;1101;51.056;7.262;2022-09-14T03:56:06;18.00;94.30
2190;DHT22;1101;51.056;7.262;2022-09-14T03:58:34;18.00;94.30
2190;DHT22;1101;51.056;7.262;2022-09-14T04:01:03;18.00;94.30
2190;DHT22;1101;51.056;7.262;2022-09-14T04:03:32;18.00;94.30
2190;DHT22;1101;51.056;7.262;2022-09-14T04:05:59;18.00;94.30
2190;DHT22;1101;51.056;7.262;2022-09-14T04:08:30;18.00;94.30
2190;DHT22;1101;51.056;7.262;2022-09-14T04:11:04;18.00;94.40
2190;DHT22;1101;51.056;7.262;2022-09-14T04:13:33;18.00;94.40
2190;DHT22;1101;51.056;7.262;2022-09-14T04:16:01;18.00;94.40
2190;DHT22;1101;51.056;7.262;2022-09-14T04:18:30;18.00;94.40
2190;DHT22;1101;51.056;7.262;2022-09-14T04:20:59;18.00;94.40
2190;DHT22;1101;51.056;7.262;2022-09-14T04:23:34;17.90;94.40
2190;DHT22;1101;51.056;7.262;2022-09-14T04:26:25;17.90;94.40
2190;DHT22;1101;51.056;7.262;2022-09-14T04:28:54;17.90;94.40
2190;DHT22;1101;51.056;7.262;2022-09-14T04:31:23;17.90;94.40
2190;DHT22;1101;51.056;7.262;2022-09-14T04:33:53;17.90;94.50
2190;DHT22;1101;51.056;7.262;2022-09-14T04:36:24;17.90;94.50
2190;DHT22;1101;51.056;7.262;2022-09-14T04:38:55;17.90;94.50
2190;DHT22;1101;51.056;7.262;2022-09-14T04:41:25;17.90;94.50
2190;DHT22;1101;51.056;7.262;2022-09-14T04:43:54;17.90;94.50
2190;DHT22;1101;51.056;7.262;2022-09-14T04:46:24;17.90;94.50
2190;DHT22;1101;51.056;7.262;2022-09-14T04:48:52;17.90;94.50
2190;DHT22;1101;51.056;7.262;2022-09-14T04:51:22;17.90;94.50
2190;DHT22;1101;51.056;7.262;2022-09-14T04:53:52;17.80;94.50
2190;DHT22;1101;51.056;7.262;2022-09-14T04:56:21;17.80;94.50
2190;DHT22;1101;51.056;7.262;2022-09-14T04:58:53;17.80;94.50
2190;DHT22;1101;51.056;7.262;2022-09-14T05:01:22;17.80;94.50
2190;DHT22;1101;51.056;7.262;2022-09-14T05:03:51;17.80;94.60
2190;DHT22;1101;51.056;7.262;2022-09-14T05:06:21;17.80;94.60
2190;DHT22;1101;51.056;7.262;2022-09-14T05:08:50;17.80;94.60
2190;DHT22;1101;51.056;7.262;2022-09-14T05:11:19;17.80;94.60
2190;DHT22;1101;51.056;7.262;2022-09-14T05:13:49;17.80;94.60
2190;DHT22;1101;51.056;7.262;2022-09-14T05:16:19;17.70;94.50
2190;DHT22;1101;51.056;7.262;2022-09-14T05:18:48;17.70;94.60
2190;DHT22;1101;51.056;7.262;2022-09-14T05:21:17;17.70;94.60
2190;DHT22;1101;51.056;7.262;2022-09-14T05:23:46;17.70;94.60
2190;DHT22;1101;51.056;7.262;2022-09-14T05:26:14;17.70;94.60
2190;DHT22;1101;51.056;7.262;2022-09-14T05:28:41;17.70;94.60
2190;DHT22;1101;51.056;7.262;2022-09-14T05:31:10;17.60;94.60
2190;DHT22;1101;51.056;7.262;2022-09-14T05:33:39;17.60;94.60
2190;DHT22;1101;51.056;7.262;2022-09-14T05:36:08;17.60;94.70
2190;DHT22;1101;51.056;7.262;2022-09-14T05:38:37;17.60;95.00
2190;DHT22;1101;51.056;7.262;2022-09-14T05:41:06;17.60;94.80
2190;DHT22;1101;51.056;7.262;2022-09-14T05:43:34;17.50;94.70
2190;DHT22;1101;51.056;7.262;2022-09-14T05:46:03;17.50;94.70
2190;DHT22;1101;51.056;7.262;2022-09-14T05:48:33;17.50;94.70
2190;DHT22;1101;51.056;7.262;2022-09-14T05:51:03;17.50;94.70
2190;DHT22;1101;51.056;7.262;2022-09-14T05:53:33;17.50;94.70
2190;DHT22;1101;51.056;7.262;2022-09-14T05:56:02;17.50;94.70
2190;DHT22;1101;51.056;7.262;2022-09-14T05:58:30;17.50;94.80
2190;DHT22;1101;51.056;7.262;2022-09-14T06:00:58;17.40;94.80
2190;DHT22;1101;51.056;7.262;2022-09-14T06:03:25;17.40;94.80
2190;DHT22;1101;51.056;7.262;2022-09-14T06:05:57;17.40;94.80
2190;DHT22;1101;51.056;7.262;2022-09-14T06:08:25;17.40;94.80
2190;DHT22;1101;51.056;7.262;2022-09-14T06:10:53;17.40;94.90
2190;DHT22;1101;51.056;7.262;2022-09-14T06:13:21;17.40;94.80
2190;DHT22;1101;51.056;7.262;2022-09-14T06:15:49;17.40;94.90
2190;DHT22;1101;51.056;7.262;2022-09-14T06:18:17;17.40;94.90
2190;DHT22;1101;51.056;7.262;2022-09-14T06:20:52;17.40;94.90
2190;DHT22;1101;51.056;7.262;2022-09-14T06:23:21;17.40;94.90
2190;DHT22;1101;51.056;7.262;2022-09-14T06:25:51;17.30;94.90
2190;DHT22;1101;51.056;7.262;2022-09-14T06:28:19;17.30;94.90
2190;DHT22;1101;51.056;7.262;2022-09-14T06:30:47;17.30;94.90
2190;DHT22;1101;51.056;7.262;2022-09-14T06:33:15;17.30;94.90
2190;DHT22;1101;51.056;7.262;2022-09-14T06:35:43;17.30;94.90
2190;DHT22;1101;51.056;7.262;2022-09-14T06:38:21;17.20;94.80
2190;DHT22;1101;51.056;7.262;2022-09-14T06:40:52;17.20;94.80
2190;DHT22;1101;51.056;7.262;2022-09-14T06:43:21;17.20;94.90
2190;DHT22;1101;51.056;7.262;2022-09-14T06:45:56;17.20;94.90
2190;DHT22;1101;51.056;7.262;2022-09-14T06:48:25;17.20;94.90
2190;DHT22;1101;51.056;7.262;2022-09-14T06:50:53;17.10;94.90
2190;DHT22;1101;51.056;7.262;2022-09-14T06:53:22;17.10;94.90
2190;DHT22;1101;51.056;7.262;2022-09-14T06:55:50;17.10;94.90
2190;DHT22;1101;51.056;7.262;2022-09-14T06:58:18;17.10;94.90
2190;DHT22;1101;51.056;7.262;2022-09-14T07:00:46;17.10;94.90
2190;DHT22;1101;51.056;7.262;2022-09-14T07:03:14;17.00;94.90
2190;DHT22;1101;51.056;7.262;2022-09-14T07:05:42;17.00;94.90
2190;DHT22;1101;51.056;7.262;2022-09-14T07:08:10;17.00;94.90
2190;DHT22;1101;51.056;7.262;2022-09-14T07:10:39;17.00;94.90
2190;DHT22;1101;51.056;7.262;2022-09-14T07:13:08;16.90;94.90
2190;DHT22;1101;51.056;7.262;2022-09-14T07:15:36;16.90;94.90
2190;DHT22;1101;51.056;7.262;2022-09-14T07:18:04;16.90;94.90
2190;DHT22;1101;51.056;7.262;2022-09-14T07:20:32;16.90;94.90
2190;DHT22;1101;51.056;7.262;2022-09-14T07:23:00;16.90;94.90
2190;DHT22;1101;51.056;7.262;2022-09-14T07:25:27;16.80;94.90
2190;DHT22;1101;51.056;7.262;2022-09-14T07:27:56;16.80;94.90
2190;DHT22;1101;51.056;7.262;2022-09-14T07:30:26;16.80;94.90
2190;DHT22;1101;51.056;7.262;2022-09-14T07:32:54;16.80;94.90
2190;DHT22;1101;51.056;7.262;2022-09-14T07:35:22;16.80;94.90
2190;DHT22;1101;51.056;7.262;2022-09-14T07:37:49;16.70;94.90
2190;DHT22;1101;51.056;7.262;2022-09-14T07:40:17;16.70;95.00
2190;DHT22;1101;51.056;7.262;2022-09-14T07:42:49;16.70;95.00
2190;DHT22;1101;51.056;7.262;2022-09-14T07:45:24;16.70;95.00
2190;DHT22;1101;51.056;7.262;2022-09-14T07:47:52;16.60;94.90
2190;DHT22;1101;51.056;7.262;2022-09-14T07:50:19;16.60;95.00
2190;DHT22;1101;51.056;7.262;2022-09-14T07:52:48;16.60;95.00
2190;DHT22;1101;51.056;7.262;2022-09-14T07:55:17;16.60;95.00
2190;DHT22;1101;51.056;7.262;2022-09-14T07:57:45;16.60;95.10
2190;DHT22;1101;51.056;7.262;2022-09-14T08:00:23;16.60;95.10
2190;DHT22;1101;51.056;7.262;2022-09-14T08:02:52;16.60;95.10
2190;DHT22;1101;51.056;7.262;2022-09-14T08:05:21;16.60;95.10
2190;DHT22;1101;51.056;7.262;2022-09-14T08:07:53;16.50;95.10
2190;DHT22;1101;51.056;7.262;2022-09-14T08:10:21;16.50;95.10
2190;DHT22;1101;51.056;7.262;2022-09-14T08:12:50;16.50;95.10
2190;DHT22;1101;51.056;7.262;2022-09-14T08:15:19;16.50;95.10
2190;DHT22;1101;51.056;7.262;2022-09-14T08:17:54;16.50;95.20
2190;DHT22;1101;51.056;7.262;2022-09-14T08:20:22;16.50;95.20
2190;DHT22;1101;51.056;7.262;2022-09-14T08:22:50;16.50;95.20
2190;DHT22;1101;51.056;7.262;2022-09-14T08:25:17;16.50;95.20
2190;DHT22;1101;51.056;7.262;2022-09-14T08:27:45;16.50;95.20
2190;DHT22;1101;51.056;7.262;2022-09-14T08:30:13;16.50;95.20
2190;DHT22;1101;51.056;7.262;2022-09-14T08:32:41;16.50;95.20
2190;DHT22;1101;51.056;7.262;2022-09-14T08:35:10;16.50;95.20
2190;DHT22;1101;51.056;7.262;2022-09-14T08:37:38;16.50;95.20
2190;DHT22;1101;51.056;7.262;2022-09-14T08:40:08;16.50;95.20
2190;DHT22;1101;51.056;7.262;2022-09-14T08:42:37;16.50;95.30
2190;DHT22;1101;51.056;7.262;2022-09-14T08:45:07;16.50;95.30
2190;DHT22;1101;51.056;7.262;2022-09-14T08:47:38;16.50;95.30
2190;DHT22;1101;51.056;7.262;2022-09-14T08:50:13;16.50;95.30
2190;DHT22;1101;51.056;7.262;2022-09-14T08:52:44;16.50;95.30
2190;DHT22;1101;51.056;7.262;2022-09-14T08:55:27;16.50;95.30
2190;DHT22;1101;51.056;7.262;2022-09-14T08:57:59;16.50;95.30
2190;DHT22;1101;51.056;7.262;2022-09-14T09:00:35;16.40;95.20
2190;DHT22;1101;51.056;7.262;2022-09-14T09:03:29;16.40;95.30
2190;DHT22;1101;51.056;7.262;2022-09-14T09:06:08;16.40;95.30
2190;DHT22;1101;51.056;7.262;2022-09-14T09:08:48;16.40;95.30
2190;DHT22;1101;51.056;7.262;2022-09-14T09:11:21;16.40;95.40
2190;DHT22;1101;51.056;7.262;2022-09-14T09:13:52;16.40;95.30
2190;DHT22;1101;51.056;7.262;2022-09-14T09:16:22;16.30;95.30
2190;DHT22;1101;51.056;7.262;2022-09-14T09:18:53;16.30;95.30
2190;DHT22;1101;51.056;7.262;2022-09-14T09:21:28;16.30;95.30
2190;DHT22;1101;51.056;7.262;2022-09-14T09:24:07;16.30;95.30
2190;DHT22;1101;51.056;7.262;2022-09-14T09:26:41;16.30;95.40
2190;DHT22;1101;51.056;7.262;2022-09-14T09:29:10;16.30;95.40
2190;DHT22;1101;51.056;7.262;2022-09-14T09:31:39;16.30;95.40
2190;DHT22;1101;51.056;7.262;2022-09-14T09:34:11;16.30;95.40
2190;DHT22;1101;51.056;7.262;2022-09-14T09:36:44;16.30;95.40
2190;DHT22;1101;51.056;7.262;2022-09-14T09:39:13;16.30;95.40
2190;DHT22;1101;51.056;7.262;2022-09-14T09:41:44;16.30;95.40
2190;DHT22;1101;51.056;7.262;2022-09-14T09:44:13;16.30;95.40
2190;DHT22;1101;51.056;7.262;2022-09-14T09:46:45;16.20;95.40
2190;DHT22;1101;51.056;7.262;2022-09-14T09:49:18;16.30;95.50
2190;DHT22;1101;51.056;7.262;2022-09-14T09:51:49;16.30;95.50
2190;DHT22;1101;51.056;7.262;2022-09-14T09:54:22;16.20;95.50
2190;DHT22;1101;51.056;7.262;2022-09-14T09:56:53;16.30;95.50
2190;DHT22;1101;51.056;7.262;2022-09-14T09:59:27;16.20;95.60
2190;DHT22;1101;51.056;7.262;2022-09-14T10:01:56;16.30;95.60
2190;DHT22;1101;51.056;7.262;2022-09-14T10:04:55;16.20;95.60
2190;DHT22;1101;51.056;7.262;2022-09-14T10:07:26;16.30;95.60
2190;DHT22;1101;51.056;7.262;2022-09-14T10:09:59;16.20;95.60
2190;DHT22;1101;51.056;7.262;2022-09-14T10:12:27;16.30;95.60
2190;DHT22;1101;51.056;7.262;2022-09-14T10:15:10;16.30;95.60
2190;DHT22;1101;51.056;7.262;2022-09-14T10:17:38;16.30;95.60
2190;DHT22;1101;51.056;7.262;2022-09-14T10:20:20;16.30;95.60
2190;DHT22;1101;51.056;7.262;2022-09-14T10:22:50;16.30;95.60
2190;DHT22;1101;51.056;7.262;2022-09-14T10:25:22;16.30;95.60
2190;DHT22;1101;51.056;7.262;2022-09-14T10:27:57;16.30;95.60
2190;DHT22;1101;51.056;7.262;2022-09-14T10:30:30;16.40;95.60
2190;DHT22;1101;51.056;7.262;2022-09-14T10:33:02;16.40;95.60
2190;DHT22;1101;51.056;7.262;2022-09-14T10:35:40;16.40;95.70
2190;DHT22;1101;51.056;7.262;2022-09-14T10:38:26;16.40;95.70
2190;DHT22;1101;51.056;7.262;2022-09-14T10:41:04;16.40;95.70
2190;DHT22;1101;51.056;7.262;2022-09-14T10:43:47;16.40;95.70
2190;DHT22;1101;51.056;7.262;2022-09-14T10:46:20;16.40;95.80
2190;DHT22;1101;51.056;7.262;2022-09-14T10:49:11;16.40;95.80
2190;DHT22;1101;51.056;7.262;2022-09-14T10:51:48;16.50;95.90
2190;DHT22;1101;51.056;7.262;2022-09-14T10:57:26;16.50;95.90
2190;DHT22;1101;51.056;7.262;2022-09-14T11:00:00;16.50;95.90
2190;DHT22;1101;51.056;7.262;2022-09-14T11:05:30;16.50;95.90
2190;DHT22;1101;51.056;7.262;2022-09-14T11:08:08;16.60;95.90
2190;DHT22;1101;51.056;7.262;2022-09-14T11:10:46;16.60;95.90
2190;DHT22;1101;51.056;7.262;2022-09-14T11:13:37;16.50;95.80
2190;DHT22;1101;51.056;7.262;2022-09-14T11:16:26;16.60;95.90
2190;DHT22;1101;51.056;7.262;2022-09-14T11:19:01;16.50;95.90
2190;DHT22;1101;51.056;7.262;2022-09-14T11:21:42;16.50;95.90
2190;DHT22;1101;51.056;7.262;2022-09-14T11:24:15;16.50;96.30
2190;DHT22;1101;51.056;7.262;2022-09-14T11:26:53;16.50;95.90
2190;DHT22;1101;51.056;7.262;2022-09-14T11:29:25;16.50;95.90
2190;DHT22;1101;51.056;7.262;2022-09-14T11:31:58;16.50;96.00
2190;DHT22;1101;51.056;7.262;2022-09-14T11:34:49;16.60;96.00
2190;DHT22;1101;51.056;7.262;2022-09-14T11:37:52;16.60;96.00
2190;DHT22;1101;51.056;7.262;2022-09-14T11:40:23;16.60;96.00
2190;DHT22;1101;51.056;7.262;2022-09-14T11:42:58;16.60;96.00
2190;DHT22;1101;51.056;7.262;2022-09-14T11:45:30;16.60;96.00
2190;DHT22;1101;51.056;7.262;2022-09-14T11:48:08;16.60;96.10
2190;DHT22;1101;51.056;7.262;2022-09-14T11:51:02;16.60;96.20
2190;DHT22;1101;51.056;7.262;2022-09-14T11:53:32;16.70;96.30
2190;DHT22;1101;51.056;7.262;2022-09-14T11:56:00;16.70;96.20
2190;DHT22;1101;51.056;7.262;2022-09-14T11:58:30;16.70;96.20
2190;DHT22;1101;51.056;7.262;2022-09-14T12:01:04;16.70;96.10
2190;DHT22;1101;51.056;7.262;2022-09-14T12:03:53;16.70;96.40
2190;DHT22;1101;51.056;7.262;2022-09-14T12:06:53;16.80;96.10
2190;DHT22;1101;51.056;7.262;2022-09-14T12:09:49;16.80;96.20
2190;DHT22;1101;51.056;7.262;2022-09-14T12:12:33;16.80;96.20
2190;DHT22;1101;51.056;7.262;2022-09-14T12:18:13;17.00;96.20
2190;DHT22;1101;51.056;7.262;2022-09-14T12:20:43;17.10;96.20
2190;DHT22;1101;51.056;7.262;2022-09-14T12:23:30;17.20;96.10
2190;DHT22;1101;51.056;7.262;2022-09-14T12:29:30;17.40;96.10
2190;DHT22;1101;51.056;7.262;2022-09-14T12:32:24;17.50;96.10
2190;DHT22;1101;51.056;7.262;2022-09-14T12:37:57;17.70;96.00
2190;DHT22;1101;51.056;7.262;2022-09-14T12:40:34;17.80;96.00
2190;DHT22;1101;51.056;7.262;2022-09-14T12:46:36;17.80;96.10
2190;DHT22;1101;51.056;7.262;2022-09-14T12:49:29;17.80;96.00
2190;DHT22;1101;51.056;7.262;2022-09-14T12:52:03;17.80;96.00
2190;DHT22;1101;51.056;7.262;2022-09-14T12:54:44;17.80;96.00
2190;DHT22;1101;51.056;7.262;2022-09-14T12:57:24;17.80;96.00
2190;DHT22;1101;51.056;7.262;2022-09-14T12:59:59;17.80;96.00
2190;DHT22;1101;51.056;7.262;2022-09-14T13:03:03;17.80;96.00
2190;DHT22;1101;51.056;7.262;2022-09-14T13:05:36;17.80;96.00
2190;DHT22;1101;51.056;7.262;2022-09-14T13:08:08;17.70;96.10
2190;DHT22;1101;51.056;7.262;2022-09-14T13:10:43;17.70;96.10
2190;DHT22;1101;51.056;7.262;2022-09-14T13:13:15;17.70;96.10
2190;DHT22;1101;51.056;7.262;2022-09-14T13:15:55;17.60;96.10
2190;DHT22;1101;51.056;7.262;2022-09-14T13:18:34;17.60;96.20
2190;DHT22;1101;51.056;7.262;2022-09-14T13:21:20;17.60;96.20
2190;DHT22;1101;51.056;7.262;2022-09-14T13:23:49;17.60;96.20
2190;DHT22;1101;51.056;7.262;2022-09-14T13:26:19;17.60;96.20
2190;DHT22;1101;51.056;7.262;2022-09-14T13:28:49;17.60;96.20
2190;DHT22;1101;51.056;7.262;2022-09-14T13:31:21;17.60;96.20
2190;DHT22;1101;51.056;7.262;2022-09-14T13:33:52;17.60;96.10
2190;DHT22;1101;51.056;7.262;2022-09-14T13:36:23;17.60;96.20
2190;DHT22;1101;51.056;7.262;2022-09-14T13:38:52;17.60;96.20
2190;DHT22;1101;51.056;7.262;2022-09-14T13:41:21;17.60;96.20
2190;DHT22;1101;51.056;7.262;2022-09-14T13:43:51;17.60;96.20
2190;DHT22;1101;51.056;7.262;2022-09-14T13:46:21;17.60;96.20
2190;DHT22;1101;51.056;7.262;2022-09-14T13:48:49;17.60;96.20
2190;DHT22;1101;51.056;7.262;2022-09-14T13:51:24;17.50;96.20
2190;DHT22;1101;51.056;7.262;2022-09-14T13:53:54;17.50;96.30
2190;DHT22;1101;51.056;7.262;2022-09-14T13:56:25;17.50;96.30
2190;DHT22;1101;51.056;7.262;2022-09-14T13:59:13;17.50;96.40
2190;DHT22;1101;51.056;7.262;2022-09-14T14:01:48;17.50;96.40
2190;DHT22;1101;51.056;7.262;2022-09-14T14:04:23;17.40;96.30
2190;DHT22;1101;51.056;7.262;2022-09-14T14:07:04;17.40;96.40
2190;DHT22;1101;51.056;7.262;2022-09-14T14:09:41;17.40;96.30
2190;DHT22;1101;51.056;7.262;2022-09-14T14:12:11;17.40;96.30
2190;DHT22;1101;51.056;7.262;2022-09-14T14:14:39;17.50;96.40
2190;DHT22;1101;51.056;7.262;2022-09-14T14:20:30;17.40;96.30
2190;DHT22;1101;51.056;7.262;2022-09-14T14:23:11;17.40;96.40
2190;DHT22;1101;51.056;7.262;2022-09-14T14:25:43;17.30;96.40
2190;DHT22;1101;51.056;7.262;2022-09-14T14:28:15;17.30;96.40
2190;DHT22;1101;51.056;7.262;2022-09-14T14:30:44;17.30;96.40
2190;DHT22;1101;51.056;7.262;2022-09-14T14:33:13;17.20;96.30
2190;DHT22;1101;51.056;7.262;2022-09-14T14:35:44;17.20;96.30
2190;DHT22;1101;51.056;7.262;2022-09-14T14:38:13;17.20;96.40
2190;DHT22;1101;51.056;7.262;2022-09-14T14:40:41;17.20;96.50
2190;DHT22;1101;51.056;7.262;2022-09-14T14:43:14;17.10;96.40
2190;DHT22;1101;51.056;7.262;2022-09-14T14:45:44;17.10;96.50
2190;DHT22;1101;51.056;7.262;2022-09-14T14:48:12;17.10;96.50
2190;DHT22;1101;51.056;7.262;2022-09-14T14:50:40;17.10;96.60
2190;DHT22;1101;51.056;7.262;2022-09-14T14:53:08;17.00;96.80
2190;DHT22;1101;51.056;7.262;2022-09-14T14:55:37;17.00;96.60
2190;DHT22;1101;51.056;7.262;2022-09-14T14:58:06;17.00;96.60
2190;DHT22;1101;51.056;7.262;2022-09-14T15:00:37;17.00;96.60
2190;DHT22;1101;51.056;7.262;2022-09-14T15:03:05;16.90;96.60
2190;DHT22;1101;51.056;7.262;2022-09-14T15:05:33;16.90;96.60
2190;DHT22;1101;51.056;7.262;2022-09-14T15:08:01;16.90;96.60
2190;DHT22;1101;51.056;7.262;2022-09-14T15:10:29;16.90;96.70
2190;DHT22;1101;51.056;7.262;2022-09-14T15:12:58;16.90;96.80
2190;DHT22;1101;51.056;7.262;2022-09-14T15:15:26;16.90;96.80
2190;DHT22;1101;51.056;7.262;2022-09-14T15:17:54;16.90;96.80
2190;DHT22;1101;51.056;7.262;2022-09-14T15:20:21;16.90;96.80
2190;DHT22;1101;51.056;7.262;2022-09-14T15:22:49;16.90;96.80
2190;DHT22;1101;51.056;7.262;2022-09-14T15:25:19;16.90;96.80
2190;DHT22;1101;51.056;7.262;2022-09-14T15:27:47;16.90;96.80
2190;DHT22;1101;51.056;7.262;2022-09-14T15:30:16;16.90;96.80
2190;DHT22;1101;51.056;7.262;2022-09-14T15:32:44;16.90;96.80
2190;DHT22;1101;51.056;7.262;2022-09-14T15:35:13;16.90;96.80
2190;DHT22;1101;51.056;7.262;2022-09-14T15:37:41;16.90;96.80
2190;DHT22;1101;51.056;7.262;2022-09-14T15:40:09;16.90;96.90
2190;DHT22;1101;51.056;7.262;2022-09-14T15:42:37;16.90;96.90
2190;DHT22;1101;51.056;7.262;2022-09-14T15:45:06;16.90;96.90
2190;DHT22;1101;51.056;7.262;2022-09-14T15:47:35;16.90;96.90
2190;DHT22;1101;51.056;7.262;2022-09-14T15:50:04;16.90;96.90
2190;DHT22;1101;51.056;7.262;2022-09-14T15:52:34;16.90;96.90
2190;DHT22;1101;51.056;7.262;2022-09-14T15:55:02;16.90;96.90
2190;DHT22;1101;51.056;7.262;2022-09-14T15:57:31;16.90;96.90
2190;DHT22;1101;51.056;7.262;2022-09-14T15:59:59;16.90;96.90
2190;DHT22;1101;51.056;7.262;2022-09-14T16:02:26;16.80;96.90
2190;DHT22;1101;51.056;7.262;2022-09-14T16:04:55;16.80;96.90
2190;DHT22;1101;51.056;7.262;2022-09-14T16:07:23;16.80;96.90
2190;DHT22;1101;51.056;7.262;2022-09-14T16:09:51;16.80;97.00
2190;DHT22;1101;51.056;7.262;2022-09-14T16:12:24;16.80;96.90
2190;DHT22;1101;51.056;7.262;2022-09-14T16:14:52;16.90;97.00
2190;DHT22;1101;51.056;7.262;2022-09-14T16:17:20;16.90;97.00
2190;DHT22;1101;51.056;7.262;2022-09-14T16:19:47;16.90;97.00
2190;DHT22;1101;51.056;7.262;2022-09-14T16:22:16;16.90;97.00
2190;DHT22;1101;51.056;7.262;2022-09-14T16:24:45;16.90;97.00
2190;DHT22;1101;51.056;7.262;2022-09-14T16:27:13;16.90;97.00
2190;DHT22;1101;51.056;7.262;2022-09-14T16:29:41;16.90;96.90
2190;DHT22;1101;51.056;7.262;2022-09-14T16:32:09;16.90;96.90
2190;DHT22;1101;51.056;7.262;2022-09-14T16:34:37;16.90;96.90
2190;DHT22;1101;51.056;7.262;2022-09-14T16:37:05;16.90;96.80
2190;DHT22;1101;51.056;7.262;2022-09-14T16:39:34;16.90;96.80
2190;DHT22;1101;51.056;7.262;2022-09-14T16:42:01;16.90;96.80
2190;DHT22;1101;51.056;7.262;2022-09-14T16:44:29;16.90;96.80
2190;DHT22;1101;51.056;7.262;2022-09-14T16:46:57;16.90;96.80
2190;DHT22;1101;51.056;7.262;2022-09-14T16:49:26;16.90;96.80
2190;DHT22;1101;51.056;7.262;2022-09-14T16:51:54;16.80;96.80
2190;DHT22;1101;51.056;7.262;2022-09-14T16:54:23;16.80;96.80